Time;durP1;ratioP1;P1;durP2;ratioP2;P2;SDS_P1;SDS_P2;PMS_P1;PMS_P2;Temp;Humidity;BMP_temperature;BMP_pressure;BME280_temperature;BME280_humidity;BME280_pressure;Samples;Min_cycle;Max_cycle;Signal;HPM_P1;HPM_P2
2022/03/07 00:00:57;;;;;;;11.90;10.10;;;6.40;49.50;;;;;;5058290;28;20465;-65
2022/03/07 00:03:24;;;;;;;10.20;9.27;;;6.50;48.90;;;;;;5062969;28;20179;-64
2022/03/07 00:05:50;;;;;;;11.63;10.43;;;6.40;48.70;;;;;;5042709;28;20187;-64
2022/03/07 00:08:16;;;;;;;12.37;9.63;;;6.40;48.70;;;;;;5061715;28;21019;-65
2022/03/07 00:10:41;;;;;;;13.20;9.53;;;6.50;48.80;;;;;;5059054;28;20987;-65
2022/03/07 00:13:07;;;;;;;12.63;9.73;;;6.50;49.00;;;;;;5062469;28;20187;-64
2022/03/07 00:15:33;;;;;;;11.37;9.67;;;6.50;48.60;;;;;;5061413;28;20233;-65
2022/03/07 00:17:59;;;;;;;11.20;9.70;;;6.40;48.70;;;;;;5062279;28;20488;-65
2022/03/07 00:20:25;;;;;;;13.53;10.50;;;6.40;49.20;;;;;;5039239;28;20464;-64
2022/03/07 00:22:50;;;;;;;10.73;9.20;;;6.20;49.10;;;;;;5061392;28;21749;-65
2022/03/07 00:25:16;;;;;;;9.83;8.83;;;6.40;49.30;;;;;;5059316;28;20222;-64
2022/03/07 00:27:42;;;;;;;11.27;10.10;;;6.50;49.20;;;;;;5063065;28;20276;-65
2022/03/07 00:30:08;;;;;;;10.70;8.73;;;6.60;49.20;;;;;;5041497;28;20981;-65
2022/03/07 00:32:34;;;;;;;11.83;10.00;;;6.60;48.90;;;;;;5043459;28;20183;-65
2022/03/07 00:35:00;;;;;;;11.60;10.00;;;6.50;48.90;;;;;;5061305;28;20954;-65
2022/03/07 00:37:26;;;;;;;11.13;9.07;;;6.50;49.10;;;;;;5057926;28;20179;-65
2022/03/07 00:39:51;;;;;;;13.20;9.80;;;6.50;49.10;;;;;;5059825;28;20511;-65
2022/03/07 00:42:17;;;;;;;10.80;9.17;;;6.40;49.40;;;;;;5061748;28;20433;-65
2022/03/07 00:44:42;;;;;;;10.23;9.23;;;6.60;49.20;;;;;;5058197;28;20679;-65
2022/03/07 00:47:08;;;;;;;12.03;9.33;;;6.60;48.80;;;;;;5062011;28;20231;-65
2022/03/07 00:49:34;;;;;;;11.97;9.70;;;6.70;48.80;;;;;;5058428;28;20597;-66
2022/03/07 00:52:00;;;;;;;11.27;10.07;;;6.60;48.70;;;;;;5062174;28;20204;-65
2022/03/07 00:54:25;;;;;;;12.50;9.43;;;6.40;49.10;;;;;;5058400;28;20191;-65
2022/03/07 00:56:51;;;;;;;9.63;8.63;;;6.50;49.10;;;;;;5058454;28;20187;-64
2022/03/07 00:59:16;;;;;;;10.80;9.70;;;6.40;49.40;;;;;;5059273;28;20210;-66
2022/03/07 01:01:42;;;;;;;10.97;9.83;;;6.40;49.50;;;;;;5062149;28;20191;-64
2022/03/07 01:04:08;;;;;;;9.80;8.80;;;6.40;49.40;;;;;;5057122;28;20626;-64
2022/03/07 01:06:33;;;;;;;11.13;9.40;;;6.50;49.30;;;;;;5060429;28;20240;-64
2022/03/07 01:08:59;;;;;;;9.60;8.60;;;6.60;49.30;;;;;;5058995;28;20211;-64
2022/03/07 01:11:25;;;;;;;11.90;8.73;;;6.60;49.50;;;;;;5060410;28;20175;-64
2022/03/07 01:13:51;;;;;;;12.50;9.80;;;6.50;49.60;;;;;;5060900;28;20274;-64
2022/03/07 01:16:16;;;;;;;10.90;9.27;;;6.40;49.60;;;;;;5061024;28;20183;-64
2022/03/07 01:18:43;;;;;;;11.97;9.30;;;6.40;49.50;;;;;;5040779;28;20179;-64
2022/03/07 01:21:09;;;;;;;11.00;9.60;;;6.10;49.50;;;;;;5059796;28;20244;-65
2022/03/07 01:23:34;;;;;;;10.13;9.13;;;6.10;50.00;;;;;;5060984;28;20429;-65
2022/03/07 01:26:00;;;;;;;10.70;9.70;;;6.10;50.00;;;;;;5059453;28;20409;-65
2022/03/07 01:28:26;;;;;;;10.70;9.23;;;6.20;50.20;;;;;;5058133;28;20186;-65
2022/03/07 01:30:51;;;;;;;12.70;11.50;;;6.20;50.40;;;;;;5060060;28;20203;-64
2022/03/07 01:33:17;;;;;;;10.47;9.40;;;6.20;50.40;;;;;;5061252;28;20217;-65
2022/03/07 01:35:43;;;;;;;12.43;8.90;;;6.10;51.10;;;;;;5056083;28;20186;-64
2022/03/07 01:38:08;;;;;;;10.80;9.20;;;6.20;50.90;;;;;;5059202;28;20183;-65
2022/03/07 01:40:34;;;;;;;11.10;9.37;;;6.30;50.50;;;;;;5058980;28;20211;-65
2022/03/07 01:42:59;;;;;;;12.93;9.33;;;6.30;50.70;;;;;;5061264;28;20962;-64
2022/03/07 01:45:26;;;;;;;10.37;9.30;;;6.30;50.60;;;;;;5058995;28;20206;-64
2022/03/07 01:47:52;;;;;;;11.53;9.27;;;6.10;50.90;;;;;;5059333;28;21201;-65
2022/03/07 01:50:19;;;;;;;11.17;8.57;;;6.10;51.10;;;;;;5059576;28;20468;-65
2022/03/07 01:52:48;;;;;;;11.17;9.00;;;6.10;51.20;;;;;;5060616;28;20179;-65
2022/03/07 01:55:14;;;;;;;12.23;9.63;;;6.10;51.30;;;;;;5041373;28;20541;-64
2022/03/07 01:57:42;;;;;;;9.57;8.57;;;6.00;51.40;;;;;;5059109;28;20445;-65
2022/03/07 02:00:11;;;;;;;10.33;9.13;;;6.00;51.60;;;;;;5059277;28;20515;-65
2022/03/07 02:02:37;;;;;;;11.23;10.13;;;5.80;51.90;;;;;;5058979;28;20444;-65
2022/03/07 02:05:04;;;;;;;10.57;9.20;;;5.90;52.00;;;;;;5060589;28;20508;-64
2022/03/07 02:07:29;;;;;;;10.37;9.27;;;5.90;52.00;;;;;;5058658;28;20476;-64
2022/03/07 02:09:56;;;;;;;11.27;9.20;;;6.00;52.00;;;;;;5061665;28;20476;-64
2022/03/07 02:12:22;;;;;;;11.63;8.53;;;5.90;52.10;;;;;;5060264;28;20563;-64
2022/03/07 02:14:47;;;;;;;10.47;9.00;;;5.80;52.30;;;;;;5065156;28;20425;-64
2022/03/07 02:17:13;;;;;;;9.97;8.80;;;5.50;52.70;;;;;;5045084;28;20187;-65
2022/03/07 02:19:38;;;;;;;9.50;8.50;;;5.50;52.80;;;;;;5063846;28;20294;-65
2022/03/07 02:22:05;;;;;;;10.40;8.80;;;5.50;52.50;;;;;;5060917;28;20200;-65
2022/03/07 02:24:32;;;;;;;11.27;8.80;;;5.50;52.80;;;;;;5063867;28;20191;-65
2022/03/07 02:27:00;;;;;;;11.60;9.20;;;5.40;53.00;;;;;;5061888;28;20441;-66
2022/03/07 02:29:26;;;;;;;9.77;8.73;;;5.30;53.10;;;;;;5060674;28;20544;-66
2022/03/07 02:31:52;;;;;;;14.80;9.37;;;5.30;53.10;;;;;;5063591;28;21179;-65
2022/03/07 02:34:18;;;;;;;14.10;9.23;;;5.40;52.90;;;;;;5063562;28;20441;-66
2022/03/07 02:36:44;;;;;;;9.00;8.10;;;5.50;52.70;;;;;;5064929;28;20191;-65
2022/03/07 02:39:10;;;;;;;10.73;9.63;;;5.60;52.60;;;;;;5063771;28;20552;-65
2022/03/07 02:41:41;;;;;;;10.90;9.07;;;5.50;52.60;;;;;;5064068;28;20186;-65
2022/03/07 02:44:07;;;;;;;9.53;8.60;;;5.40;52.70;;;;;;5063889;28;20441;-65
2022/03/07 02:46:33;;;;;;;11.17;9.97;;;5.30;53.00;;;;;;5060568;28;20433;-65
2022/03/07 02:48:59;;;;;;;11.77;8.80;;;5.30;53.20;;;;;;5063331;28;20562;-64
2022/03/07 02:51:25;;;;;;;10.37;9.37;;;5.20;53.40;;;;;;5061061;28;20526;-64
2022/03/07 02:53:50;;;;;;;10.47;9.37;;;5.20;53.30;;;;;;5064478;28;20187;-64
2022/03/07 02:56:16;;;;;;;9.43;8.43;;;5.10;53.30;;;;;;5060755;28;20558;-64
2022/03/07 02:58:42;;;;;;;10.20;9.00;;;5.20;53.10;;;;;;5062483;28;20460;-64
2022/03/07 03:01:09;;;;;;;9.90;8.77;;;5.00;53.40;;;;;;5061915;28;20556;-64
2022/03/07 03:03:34;;;;;;;9.97;8.93;;;4.90;53.30;;;;;;5064973;28;20895;-64
2022/03/07 03:06:00;;;;;;;12.10;9.20;;;5.10;53.20;;;;;;5060106;28;20528;-64
2022/03/07 03:08:26;;;;;;;9.47;8.57;;;5.10;52.70;;;;;;5064169;28;20258;-65
2022/03/07 03:10:53;;;;;;;10.57;9.20;;;5.00;53.20;;;;;;5061810;28;20850;-64
2022/03/07 03:13:20;;;;;;;13.00;9.33;;;4.80;53.10;;;;;;5064348;28;20189;-64
2022/03/07 03:15:46;;;;;;;10.43;9.20;;;4.80;53.70;;;;;;5062261;28;21262;-64
2022/03/07 03:18:13;;;;;;;10.27;9.10;;;4.90;53.30;;;;;;5061667;28;20432;-64
2022/03/07 03:20:39;;;;;;;10.60;8.60;;;4.90;52.70;;;;;;5060947;28;20495;-64
2022/03/07 03:23:05;;;;;;;9.83;8.80;;;4.90;52.80;;;;;;5064917;28;20445;-65
2022/03/07 03:25:31;;;;;;;9.30;8.30;;;5.00;52.80;;;;;;5062056;28;20425;-64
2022/03/07 03:27:57;;;;;;;12.37;9.20;;;5.00;52.70;;;;;;5062506;28;21431;-64
2022/03/07 03:30:22;;;;;;;12.70;8.30;;;4.90;52.60;;;;;;5060797;28;20252;-64
2022/03/07 03:32:48;;;;;;;9.73;8.10;;;4.80;52.50;;;;;;5046931;28;20567;-65
2022/03/07 03:35:14;;;;;;;13.97;9.20;;;4.80;52.40;;;;;;5061885;28;20191;-65
2022/03/07 03:37:40;;;;;;;9.90;8.43;;;4.70;52.40;;;;;;5060634;28;20187;-64
2022/03/07 03:40:09;;;;;;;9.70;8.70;;;4.80;52.60;;;;;;5060730;28;20226;-64
2022/03/07 03:42:35;;;;;;;10.40;9.30;;;4.80;52.40;;;;;;5060782;28;20262;-65
2022/03/07 03:45:01;;;;;;;12.17;9.53;;;4.70;52.30;;;;;;5061791;28;21038;-65
2022/03/07 03:47:27;;;;;;;13.47;9.57;;;4.60;52.30;;;;;;5060542;28;20726;-65
2022/03/07 03:49:52;;;;;;;11.73;9.57;;;4.50;52.60;;;;;;5062024;28;20219;-65
2022/03/07 03:52:18;;;;;;;11.93;9.70;;;4.50;52.80;;;;;;5058837;28;20191;-65
2022/03/07 03:54:44;;;;;;;10.87;9.00;;;4.60;52.70;;;;;;5061617;28;20449;-65
2022/03/07 03:57:10;;;;;;;9.90;8.30;;;4.60;52.80;;;;;;5061651;28;20644;-65
2022/03/07 03:59:35;;;;;;;11.17;9.97;;;4.60;52.80;;;;;;5061853;28;20218;-65
2022/03/07 04:02:01;;;;;;;10.57;9.47;;;4.60;53.20;;;;;;5042210;28;20221;-65
2022/03/07 04:04:27;;;;;;;9.73;8.70;;;4.50;53.30;;;;;;5044711;28;20224;-65
2022/03/07 04:06:52;;;;;;;11.07;9.87;;;4.50;53.80;;;;;;5059027;28;20191;-65
2022/03/07 04:09:20;;;;;;;11.53;9.03;;;4.50;53.80;;;;;;5043751;28;20595;-66
2022/03/07 04:11:47;;;;;;;10.70;9.57;;;4.40;54.40;;;;;;5058888;28;20199;-66
2022/03/07 04:14:13;;;;;;;9.90;8.90;;;4.50;55.00;;;;;;5062549;28;20796;-66
2022/03/07 04:16:39;;;;;;;11.97;10.10;;;4.40;54.60;;;;;;5059284;28;20433;-65
2022/03/07 04:19:08;;;;;;;11.90;9.27;;;4.30;55.10;;;;;;5043426;28;20503;-65
2022/03/07 04:21:35;;;;;;;11.77;10.20;;;4.10;55.50;;;;;;5058474;28;20687;-65
2022/03/07 04:24:01;;;;;;;14.63;9.17;;;4.00;56.00;;;;;;5062724;28;20572;-65
2022/03/07 04:26:26;;;;;;;11.30;8.80;;;4.10;56.20;;;;;;5060066;28;20522;-65
2022/03/07 04:28:52;;;;;;;9.97;8.27;;;4.10;56.80;;;;;;5061982;28;20203;-65
2022/03/07 04:31:18;;;;;;;10.20;8.87;;;4.10;56.50;;;;;;5041993;28;20262;-65
2022/03/07 04:33:43;;;;;;;9.40;7.60;;;4.10;56.70;;;;;;5059642;28;20179;-65
2022/03/07 04:36:10;;;;;;;9.80;8.20;;;4.10;56.80;;;;;;5061241;28;20701;-66
2022/03/07 04:38:36;;;;;;;10.07;8.97;;;3.90;57.10;;;;;;5059434;28;20198;-65
2022/03/07 04:41:02;;;;;;;9.90;7.67;;;3.90;57.50;;;;;;5062229;28;20445;-65
2022/03/07 04:43:27;;;;;;;11.63;7.90;;;3.80;57.80;;;;;;5060133;28;20532;-65
2022/03/07 04:45:53;;;;;;;10.50;7.93;;;3.70;57.90;;;;;;5061729;28;20530;-65
2022/03/07 04:48:20;;;;;;;12.27;8.20;;;3.70;58.50;;;;;;5057337;28;20183;-65
2022/03/07 04:50:46;;;;;;;8.73;7.40;;;3.80;58.40;;;;;;5062290;28;20258;-65
2022/03/07 04:53:11;;;;;;;8.63;7.73;;;3.80;58.20;;;;;;5058819;28;20469;-65
2022/03/07 04:55:37;;;;;;;8.90;7.97;;;3.90;58.50;;;;;;5062988;28;20190;-65
2022/03/07 04:58:03;;;;;;;10.20;7.63;;;3.70;58.40;;;;;;5058221;28;20175;-65
2022/03/07 05:00:29;;;;;;;7.97;7.17;;;3.70;58.70;;;;;;5060884;28;20215;-65
2022/03/07 05:02:55;;;;;;;9.10;7.20;;;3.70;59.20;;;;;;5057109;28;20194;-65
2022/03/07 05:05:20;;;;;;;9.20;6.73;;;3.60;59.00;;;;;;5061590;28;20453;-65
2022/03/07 05:07:49;;;;;;;8.90;7.47;;;3.70;59.10;;;;;;5058368;28;20183;-65
2022/03/07 05:10:16;;;;;;;7.43;6.73;;;3.40;59.40;;;;;;5062187;28;20203;-66
2022/03/07 05:12:42;;;;;;;9.93;7.20;;;3.40;59.80;;;;;;5057739;28;20433;-66
2022/03/07 05:15:08;;;;;;;8.40;7.57;;;3.60;59.60;;;;;;5062486;28;20432;-66
2022/03/07 05:17:45;;;;;;;8.03;6.97;;;3.60;59.20;;;;;;5059137;28;20430;-65
2022/03/07 05:20:12;;;;;;;7.80;6.80;;;3.60;59.20;;;;;;5060033;28;20978;-65
2022/03/07 05:22:39;;;;;;;10.70;6.10;;;3.40;59.40;;;;;;5060085;28;20425;-65
2022/03/07 05:25:06;;;;;;;7.93;7.07;;;3.20;60.00;;;;;;5058650;28;20436;-65
2022/03/07 05:27:32;;;;;;;9.03;5.97;;;3.30;59.60;;;;;;5061320;28;20433;-65
2022/03/07 05:29:57;;;;;;;7.37;6.30;;;3.30;59.80;;;;;;5057553;28;21071;-65
2022/03/07 05:32:23;;;;;;;7.90;5.77;;;3.50;59.50;;;;;;5061019;28;20175;-66
2022/03/07 05:34:48;;;;;;;9.37;6.30;;;3.30;59.30;;;;;;5059138;28;20184;-65
2022/03/07 05:37:14;;;;;;;8.10;6.03;;;3.50;59.30;;;;;;5041749;28;20236;-65
2022/03/07 05:39:40;;;;;;;7.27;6.57;;;3.50;59.20;;;;;;5059699;28;20225;-65
2022/03/07 05:42:06;;;;;;;7.73;6.40;;;3.50;59.00;;;;;;5061196;28;20891;-65
2022/03/07 05:44:32;;;;;;;6.70;6.00;;;3.60;58.80;;;;;;5061567;28;20198;-65
2022/03/07 05:46:57;;;;;;;7.03;6.23;;;3.40;58.80;;;;;;5064194;28;21001;-66
2022/03/07 05:49:23;;;;;;;7.13;5.57;;;3.40;58.80;;;;;;5061229;28;20198;-66
2022/03/07 05:51:49;;;;;;;7.50;6.30;;;3.50;59.00;;;;;;5066096;28;20183;-66
2022/03/07 05:54:14;;;;;;;9.43;5.70;;;3.40;59.00;;;;;;5061522;28;20179;-66
2022/03/07 05:56:40;;;;;;;8.67;6.53;;;3.40;58.70;;;;;;5064801;28;20383;-66
2022/03/07 05:59:05;;;;;;;7.70;6.83;;;3.40;58.80;;;;;;5062693;28;20560;-66
2022/03/07 06:01:31;;;;;;;7.93;6.43;;;3.40;58.80;;;;;;5063254;28;20187;-66
2022/03/07 06:03:57;;;;;;;8.13;7.30;;;3.20;59.00;;;;;;5062533;28;20665;-66
2022/03/07 06:06:22;;;;;;;7.70;6.77;;;3.30;59.00;;;;;;5061969;28;20191;-66
2022/03/07 06:08:48;;;;;;;9.37;7.10;;;3.30;59.10;;;;;;5063753;28;20183;-66
2022/03/07 06:11:14;;;;;;;6.57;5.70;;;3.40;59.00;;;;;;5061217;28;20350;-66
2022/03/07 06:13:39;;;;;;;7.03;6.10;;;3.30;58.90;;;;;;5046666;28;20208;-66
2022/03/07 06:16:06;;;;;;;9.03;6.20;;;3.20;58.80;;;;;;5060373;28;20217;-65
2022/03/07 06:18:31;;;;;;;7.53;5.73;;;3.10;58.90;;;;;;5061868;28;20182;-65
2022/03/07 06:20:57;;;;;;;11.10;7.83;;;3.00;59.10;;;;;;5062204;28;20479;-66
2022/03/07 06:23:23;;;;;;;7.10;5.90;;;3.10;59.00;;;;;;5062552;28;20183;-65
2022/03/07 06:25:49;;;;;;;7.33;6.30;;;3.10;58.80;;;;;;5062316;28;20186;-66
2022/03/07 06:28:16;;;;;;;7.70;5.73;;;3.20;58.80;;;;;;5043649;28;20437;-66
2022/03/07 06:30:42;;;;;;;6.30;5.70;;;3.30;58.70;;;;;;5061167;28;20491;-66
2022/03/07 06:33:07;;;;;;;8.83;6.47;;;3.40;58.40;;;;;;5063199;28;22593;-66
2022/03/07 06:35:33;;;;;;;9.37;6.20;;;3.40;58.30;;;;;;5061237;28;21174;-66
2022/03/07 06:37:58;;;;;;;9.27;6.40;;;3.20;58.10;;;;;;5063205;28;20592;-65
2022/03/07 06:40:26;;;;;;;11.73;6.60;;;3.20;58.60;;;;;;5062483;28;20234;-65
2022/03/07 06:42:52;;;;;;;10.80;8.03;;;3.30;58.60;;;;;;5047260;28;20197;-65
2022/03/07 06:45:18;;;;;;;13.37;7.30;;;3.40;58.40;;;;;;5060858;28;20545;-66
2022/03/07 06:47:47;;;;;;;11.07;6.03;;;3.30;58.30;;;;;;5060305;28;20191;-66
2022/03/07 06:50:14;;;;;;;9.30;6.30;;;3.40;58.30;;;;;;5060888;28;20486;-66
2022/03/07 06:52:39;;;;;;;7.90;6.63;;;3.40;58.00;;;;;;5063675;28;20805;-66
2022/03/07 06:55:05;;;;;;;8.73;6.03;;;3.50;58.10;;;;;;5060461;28;20548;-65
2022/03/07 06:57:31;;;;;;;8.60;7.53;;;3.50;57.80;;;;;;5060459;28;20214;-65
2022/03/07 06:59:57;;;;;;;9.07;6.67;;;3.60;57.80;;;;;;5057080;28;20496;-65
2022/03/07 07:02:22;;;;;;;8.40;6.33;;;3.60;58.00;;;;;;5063260;28;20183;-65
2022/03/07 07:04:48;;;;;;;8.37;6.53;;;3.60;57.80;;;;;;5061473;28;20187;-65
2022/03/07 07:07:15;;;;;;;8.80;7.57;;;3.50;58.00;;;;;;5060600;28;20186;-65
2022/03/07 07:09:41;;;;;;;8.93;6.93;;;3.50;58.10;;;;;;5062716;28;20479;-63
2022/03/07 07:12:08;;;;;;;38.20;25.27;;;3.50;58.10;;;;;;5061435;28;20426;-64
2022/03/07 07:14:34;;;;;;;14.97;9.40;;;3.50;58.00;;;;;;5063743;28;20417;-64
2022/03/07 07:16:59;;;;;;;9.50;7.70;;;3.50;58.40;;;;;;5062859;28;20700;-64
2022/03/07 07:19:25;;;;;;;11.47;8.13;;;3.50;57.90;;;;;;5060961;28;20207;-65
2022/03/07 07:21:51;;;;;;;9.17;7.27;;;3.60;57.90;;;;;;5056498;28;20214;-65
2022/03/07 07:24:17;;;;;;;11.37;6.53;;;3.50;58.00;;;;;;5056184;28;20951;-66
2022/03/07 07:26:42;;;;;;;10.23;7.53;;;3.50;58.20;;;;;;5057814;28;20183;-65
2022/03/07 07:29:08;;;;;;;15.23;7.67;;;3.60;58.00;;;;;;5037961;28;20676;-65
2022/03/07 07:31:33;;;;;;;9.17;7.73;;;3.60;57.90;;;;;;5059657;28;20179;-65
2022/03/07 07:33:59;;;;;;;10.67;7.50;;;3.60;57.70;;;;;;5058969;28;20183;-66
2022/03/07 07:36:24;;;;;;;10.33;7.00;;;3.60;57.70;;;;;;5039934;28;20191;-67
2022/03/07 07:38:50;;;;;;;12.60;7.73;;;3.60;57.50;;;;;;5060875;28;20183;-67
2022/03/07 07:41:16;;;;;;;8.97;7.70;;;3.50;57.60;;;;;;5057030;28;20187;-67
2022/03/07 07:43:41;;;;;;;10.60;7.80;;;3.40;57.60;;;;;;5058862;28;20188;-67
2022/03/07 07:46:07;;;;;;;9.10;7.73;;;3.60;57.90;;;;;;5056507;28;21997;-66
2022/03/07 07:48:33;;;;;;;10.00;8.10;;;3.70;58.20;;;;;;5059634;28;20218;-66
2022/03/07 07:50:58;;;;;;;9.00;7.80;;;3.60;57.70;;;;;;5058999;28;20522;-66
2022/03/07 07:53:24;;;;;;;8.30;6.70;;;3.70;57.50;;;;;;5058549;28;20187;-67
2022/03/07 07:55:49;;;;;;;8.93;6.90;;;3.70;57.30;;;;;;5059655;28;20193;-66
2022/03/07 07:58:15;;;;;;;9.67;7.57;;;3.70;57.10;;;;;;5058496;28;20218;-65
2022/03/07 08:00:40;;;;;;;10.20;7.47;;;3.70;57.10;;;;;;5058253;28;20242;-68
2022/03/07 08:03:07;;;;;;;12.13;8.43;;;3.70;56.70;;;;;;5058841;28;20191;-66
2022/03/07 08:05:33;;;;;;;10.47;8.20;;;3.60;57.30;;;;;;5059715;28;22365;-65
2022/03/07 08:07:59;;;;;;;10.27;7.67;;;3.60;57.10;;;;;;5057610;28;21886;-65
2022/03/07 08:10:26;;;;;;;10.13;8.20;;;3.60;56.30;;;;;;5059447;28;20718;-66
2022/03/07 08:12:51;;;;;;;9.37;8.37;;;3.70;56.20;;;;;;5055411;28;20510;-66
2022/03/07 08:15:17;;;;;;;11.90;8.47;;;3.70;56.00;;;;;;5055117;28;20182;-67
2022/03/07 08:17:46;;;;;;;12.30;8.63;;;3.80;56.00;;;;;;5056443;28;20263;-67
2022/03/07 08:20:15;;;;;;;10.70;7.90;;;3.80;55.60;;;;;;5059074;28;20297;-66
2022/03/07 08:22:41;;;;;;;11.63;8.10;;;3.90;55.80;;;;;;5055894;28;20827;-65
2022/03/07 08:25:08;;;;;;;12.23;9.30;;;3.70;56.10;;;;;;5057912;28;20811;-66
2022/03/07 08:27:34;;;;;;;13.80;8.97;;;3.70;56.10;;;;;;5036973;28;21079;-66
2022/03/07 08:30:01;;;;;;;10.97;9.00;;;3.60;56.20;;;;;;5059964;28;20564;-67
2022/03/07 08:32:26;;;;;;;13.63;9.83;;;3.60;56.30;;;;;;5057831;28;20861;-65
2022/03/07 08:34:52;;;;;;;15.37;11.47;;;3.50;56.50;;;;;;5059292;28;20441;-66
2022/03/07 08:37:18;;;;;;;19.37;10.43;;;3.50;56.40;;;;;;5055587;28;20245;-66
2022/03/07 08:39:43;;;;;;;11.83;9.70;;;3.70;56.80;;;;;;5042076;28;20509;-67
2022/03/07 08:42:09;;;;;;;13.07;9.20;;;3.70;56.80;;;;;;5059033;28;20198;-67
2022/03/07 08:44:35;;;;;;;13.27;9.43;;;3.70;56.50;;;;;;5057369;28;20186;-67
2022/03/07 08:47:01;;;;;;;11.57;9.60;;;3.70;56.70;;;;;;5059157;28;20212;-68
2022/03/07 08:49:26;;;;;;;12.40;8.40;;;3.80;56.80;;;;;;5057665;28;20219;-67
2022/03/07 08:51:52;;;;;;;13.80;10.37;;;3.80;56.80;;;;;;5059032;28;20206;-67
2022/03/07 08:54:18;;;;;;;16.57;10.23;;;3.80;56.80;;;;;;5057398;28;20555;-67
2022/03/07 08:56:44;;;;;;;14.37;10.20;;;3.90;56.70;;;;;;5057448;28;20252;-67
2022/03/07 08:59:10;;;;;;;15.00;9.87;;;3.90;56.60;;;;;;5056091;28;20250;-66
2022/03/07 09:01:36;;;;;;;12.70;8.83;;;3.90;56.60;;;;;;5059402;28;20475;-67
2022/03/07 09:04:02;;;;;;;13.57;9.73;;;4.00;56.50;;;;;;5059190;28;20206;-67
2022/03/07 09:06:28;;;;;;;13.30;9.47;;;4.20;56.50;;;;;;5059213;28;20421;-66
2022/03/07 09:08:54;;;;;;;12.80;9.30;;;4.20;56.50;;;;;;5057738;28;20429;-66
2022/03/07 09:11:20;;;;;;;11.47;9.60;;;4.20;56.40;;;;;;5057437;28;20467;-66
2022/03/07 09:13:46;;;;;;;11.90;9.30;;;4.20;56.30;;;;;;5055088;28;20189;-68
2022/03/07 09:16:14;;;;;;;12.80;10.20;;;4.20;56.30;;;;;;5058343;28;20198;-66
2022/03/07 09:18:40;;;;;;;11.40;9.10;;;4.30;56.20;;;;;;5058939;28;20512;-67
2022/03/07 09:21:06;;;;;;;12.33;9.23;;;4.40;56.50;;;;;;5040320;28;20470;-66
2022/03/07 09:23:37;;;;;;;11.20;9.50;;;4.50;56.50;;;;;;5054701;28;20491;-67
2022/03/07 09:26:04;;;;;;;18.43;10.83;;;4.50;56.40;;;;;;5051257;28;20430;-66
2022/03/07 09:28:29;;;;;;;12.13;9.70;;;4.60;56.30;;;;;;5039028;28;20533;-67
2022/03/07 09:30:55;;;;;;;14.53;10.00;;;4.70;56.20;;;;;;5056457;28;20563;-67
2022/03/07 09:33:20;;;;;;;14.40;10.70;;;4.60;55.90;;;;;;5053701;28;20619;-67
2022/03/07 09:35:46;;;;;;;14.93;9.80;;;4.70;55.80;;;;;;5055840;28;20771;-67
2022/03/07 09:38:11;;;;;;;13.53;10.70;;;4.60;55.20;;;;;;5054389;28;20205;-67
2022/03/07 09:40:37;;;;;;;12.10;10.47;;;4.60;55.30;;;;;;5058920;28;20290;-67
2022/03/07 09:43:03;;;;;;;14.60;9.07;;;4.60;55.20;;;;;;5057862;28;20194;-67
2022/03/07 09:45:29;;;;;;;13.20;10.47;;;4.60;55.10;;;;;;5061984;28;20211;-70
2022/03/07 09:47:57;;;;;;;13.83;10.50;;;4.60;55.00;;;;;;5056769;28;20546;-65
2022/03/07 09:50:23;;;;;;;12.57;10.13;;;4.70;54.70;;;;;;5059397;28;20210;-66
2022/03/07 09:52:49;;;;;;;15.47;10.50;;;4.80;55.00;;;;;;5060337;28;20429;-65
2022/03/07 09:55:16;;;;;;;13.27;10.63;;;4.70;54.50;;;;;;5052375;28;20187;-66
2022/03/07 09:57:43;;;;;;;19.27;11.27;;;4.90;54.00;;;;;;5053427;28;20717;-66
2022/03/07 10:00:09;;;;;;;16.27;9.87;;;4.90;54.10;;;;;;5054118;28;20469;-65
2022/03/07 10:02:35;;;;;;;12.27;10.40;;;5.00;54.40;;;;;;5063318;28;20470;-65
2022/03/07 10:05:02;;;;;;;14.70;10.70;;;5.00;53.90;;;;;;5057081;28;20869;-65
2022/03/07 10:07:27;;;;;;;13.67;10.30;;;5.00;53.80;;;;;;5060501;28;20221;-65
2022/03/07 10:10:07;;;;;;;13.10;10.40;;;5.20;54.00;;;;;;5058901;28;20489;-64
2022/03/07 10:12:33;;;;;;;13.23;10.70;;;5.20;53.80;;;;;;5062516;28;20592;-64
2022/03/07 10:15:11;;;;;;;14.73;10.57;;;5.30;53.70;;;;;;5060044;28;20517;-63
2022/03/07 10:17:40;;;;;;;16.70;10.90;;;5.50;53.70;;;;;;5059126;28;20243;-66
2022/03/07 10:20:07;;;;;;;10.80;9.23;;;5.50;52.90;;;;;;5060373;28;20838;-65
2022/03/07 10:22:32;;;;;;;13.90;11.33;;;5.60;52.80;;;;;;5058133;28;20836;-66
2022/03/07 10:25:05;;;;;;;15.37;11.70;;;5.60;52.80;;;;;;5061354;28;20417;-64
2022/03/07 10:27:39;;;;;;;16.20;11.20;;;5.60;52.60;;;;;;5057044;28;20444;-64
2022/03/07 10:30:12;;;;;;;13.50;11.40;;;5.60;52.10;;;;;;5064650;28;20469;-65
2022/03/07 10:32:38;;;;;;;11.97;10.00;;;5.60;51.70;;;;;;5061648;28;20443;-64
2022/03/07 10:35:04;;;;;;;15.90;10.50;;;5.60;51.40;;;;;;5064715;28;20444;-65
2022/03/07 10:37:37;;;;;;;13.50;10.33;;;5.70;51.40;;;;;;5061872;28;20187;-64
2022/03/07 10:40:07;;;;;;;14.57;11.60;;;5.70;51.60;;;;;;5063203;28;20469;-64
2022/03/07 10:42:36;;;;;;;13.00;10.37;;;5.70;51.30;;;;;;5061443;28;20491;-64
2022/03/07 10:45:06;;;;;;;14.40;11.33;;;5.90;51.70;;;;;;5064432;28;20421;-64
2022/03/07 10:47:32;;;;;;;13.07;10.30;;;6.10;51.40;;;;;;5061977;28;20516;-64
2022/03/07 10:50:01;;;;;;;12.33;10.10;;;6.20;50.90;;;;;;5046563;28;20960;-64
2022/03/07 10:52:38;;;;;;;12.47;10.43;;;6.10;50.80;;;;;;5063696;28;20787;-65
2022/03/07 10:55:10;;;;;;;11.90;9.57;;;6.20;50.50;;;;;;5061338;28;20793;-64
2022/03/07 10:57:39;;;;;;;12.97;10.97;;;6.20;50.40;;;;;;5045303;28;20499;-64
2022/03/07 11:00:14;;;;;;;16.80;11.57;;;6.30;50.10;;;;;;5044954;28;21367;-63
2022/03/07 11:02:45;;;;;;;12.63;11.27;;;6.30;49.60;;;;;;5063878;28;20467;-64
2022/03/07 11:05:14;;;;;;;12.80;10.33;;;6.10;49.20;;;;;;5061129;28;20450;-63
2022/03/07 11:07:42;;;;;;;13.83;10.00;;;6.00;49.70;;;;;;5063475;28;20499;-63
2022/03/07 11:10:10;;;;;;;14.13;10.90;;;5.90;49.40;;;;;;5060628;28;20530;-65
2022/03/07 11:12:36;;;;;;;11.10;10.00;;;6.00;50.00;;;;;;5064378;28;20911;-62
2022/03/07 11:15:08;;;;;;;13.70;11.20;;;6.20;50.40;;;;;;5061512;28;20447;-64
2022/03/07 11:17:40;;;;;;;11.93;9.93;;;6.30;50.40;;;;;;5064798;28;20590;-64
2022/03/07 11:20:08;;;;;;;12.10;10.40;;;6.30;50.00;;;;;;5059228;28;21238;-64
2022/03/07 11:22:34;;;;;;;12.93;11.27;;;6.40;50.00;;;;;;5063160;28;20433;-64
2022/03/07 11:25:03;;;;;;;14.20;11.17;;;6.50;49.50;;;;;;5061640;28;20911;-64
2022/03/07 11:27:29;;;;;;;12.00;10.40;;;6.50;49.10;;;;;;5061656;28;20885;-63
2022/03/07 11:29:55;;;;;;;13.00;9.97;;;6.50;49.00;;;;;;5060387;28;21079;-63
2022/03/07 11:32:21;;;;;;;12.13;9.70;;;6.50;49.10;;;;;;5063079;28;20432;-63
2022/03/07 11:34:55;;;;;;;16.27;11.97;;;6.60;49.20;;;;;;5063713;28;20199;-64
2022/03/07 11:37:23;;;;;;;12.40;10.23;;;6.60;49.60;;;;;;5061608;28;20512;-63
2022/03/07 11:39:49;;;;;;;14.53;11.10;;;6.60;49.10;;;;;;5042262;28;20999;-64
2022/03/07 11:42:19;;;;;;;13.57;12.17;;;6.50;48.70;;;;;;5060947;28;20429;-64
2022/03/07 11:44:46;;;;;;;14.50;10.10;;;6.70;48.60;;;;;;5063759;28;20452;-64
2022/03/07 11:47:14;;;;;;;11.83;10.60;;;6.60;48.60;;;;;;5041874;28;20632;-65
2022/03/07 11:49:41;;;;;;;15.17;10.97;;;6.60;48.60;;;;;;5063382;28;20445;-66
2022/03/07 11:52:15;;;;;;;14.73;11.60;;;6.60;48.70;;;;;;5060090;28;20425;-65
2022/03/07 11:54:52;;;;;;;18.33;10.83;;;6.80;48.70;;;;;;5060342;28;20732;-65
2022/03/07 11:57:18;;;;;;;14.33;11.63;;;6.80;48.60;;;;;;5056569;28;20435;-65
2022/03/07 11:59:44;;;;;;;11.93;10.00;;;6.80;49.00;;;;;;5060894;28;20872;-65
2022/03/07 12:02:10;;;;;;;13.00;10.93;;;6.90;48.90;;;;;;5062010;28;20436;-65
2022/03/07 12:04:44;;;;;;;12.17;10.17;;;7.20;48.70;;;;;;5060490;28;20926;-65
2022/03/07 12:07:09;;;;;;;11.73;10.40;;;7.20;48.30;;;;;;5061401;28;20202;-65
2022/03/07 12:09:37;;;;;;;12.17;10.97;;;7.50;48.30;;;;;;5059798;28;20948;-65
2022/03/07 12:12:14;;;;;;;11.20;10.00;;;7.80;47.80;;;;;;5063715;28;20174;-65
2022/03/07 12:14:42;;;;;;;13.50;11.20;;;8.40;47.50;;;;;;5058981;28;20441;-65
2022/03/07 12:17:13;;;;;;;13.20;11.80;;;9.00;46.40;;;;;;5061229;28;21330;-65
2022/03/07 12:19:40;;;;;;;13.33;11.80;;;9.90;45.20;;;;;;5059972;28;20499;-65
2022/03/07 12:22:13;;;;;;;12.13;10.90;;;10.40;43.30;;;;;;5060593;28;20927;-64
2022/03/07 12:24:39;;;;;;;13.67;10.83;;;11.10;43.40;;;;;;5040306;28;20495;-65
2022/03/07 12:27:06;;;;;;;16.40;11.37;;;11.70;42.20;;;;;;5040052;28;20433;-65
2022/03/07 12:29:32;;;;;;;12.40;11.10;;;12.40;40.80;;;;;;5061211;28;20543;-64
2022/03/07 12:32:05;;;;;;;12.77;10.90;;;12.70;40.20;;;;;;5057624;28;20886;-65
2022/03/07 12:34:32;;;;;;;14.57;10.40;;;12.70;40.20;;;;;;5060849;28;20229;-64
2022/03/07 12:36:58;;;;;;;11.90;10.60;;;13.50;40.00;;;;;;5060529;28;20437;-64
2022/03/07 12:39:25;;;;;;;13.00;11.70;;;13.90;39.30;;;;;;5056607;28;20488;-64
2022/03/07 12:41:51;;;;;;;12.37;11.07;;;14.20;38.50;;;;;;5058734;28;20453;-63